Time;durP1;ratioP1;P1;durP2;ratioP2;P2;SDS_P1;SDS_P2;PMS_P1;PMS_P2;Temp;Humidity;BMP_temperature;BMP_pressure;BME280_temperature;BME280_humidity;BME280_pressure;Samples;Min_cycle;Max_cycle;Signal;HPM_P1;HPM_P2
2023/05/08 00:01:47;;;;;;;6.10;2.73;;;;;;;;;;4994430;28;20908;-65
2023/05/08 00:04:13;;;;;;;2.43;2.43;;;;;;;;;;4993046;28;20430;-65
2023/05/08 00:06:39;;;;;;;2.60;2.60;;;;;;;;;;4993394;28;20477;-64
2023/05/08 00:09:07;;;;;;;2.30;2.30;;;;;;;;;;4993847;28;20787;-65
2023/05/08 00:11:33;;;;;;;3.07;2.37;;;;;;;;;;4992971;28;20440;-65
2023/05/08 00:14:02;;;;;;;2.60;2.50;;;;;;;;;;4993287;28;20413;-65
2023/05/08 00:16:30;;;;;;;2.70;2.60;;;;;;;;;;4993650;28;20432;-65
2023/05/08 00:18:56;;;;;;;2.60;2.60;;;;;;;;;;4993760;28;20461;-65
2023/05/08 00:21:25;;;;;;;2.10;2.10;;;;;;;;;;4994178;28;20768;-65
2023/05/08 00:23:51;;;;;;;2.93;2.83;;;;;;;;;;4993627;28;20414;-65
2023/05/08 00:26:17;;;;;;;5.10;2.57;;;;;;;;;;4994240;28;20467;-65
2023/05/08 00:28:43;;;;;;;2.60;2.60;;;;;;;;;;4992640;28;20450;-65
2023/05/08 00:31:09;;;;;;;2.77;2.60;;;;;;;;;;4993953;28;20414;-65
2023/05/08 00:33:35;;;;;;;3.10;3.00;;;;;;;;;;4993873;28;20451;-65
2023/05/08 00:36:01;;;;;;;2.57;2.47;;;;;;;;;;4993680;28;20919;-65
2023/05/08 00:38:29;;;;;;;2.63;2.60;;;;;;;;;;4993788;28;20456;-65
2023/05/08 00:40:55;;;;;;;2.27;2.17;;;;;;;;;;4992942;28;20421;-65
2023/05/08 00:43:24;;;;;;;2.53;2.43;;;;;;;;;;4993301;28;20429;-65
2023/05/08 00:45:50;;;;;;;2.57;2.40;;;;;;;;;;4993603;28;20438;-65
2023/05/08 00:48:17;;;;;;;4.20;2.80;;;;;;;;;;4993356;28;20417;-65
2023/05/08 00:50:43;;;;;;;3.83;2.70;;;;;;;;;;4993317;28;20436;-65
2023/05/08 00:53:13;;;;;;;5.23;2.53;;;;;;;;;;4993655;28;20409;-65
2023/05/08 00:55:40;;;;;;;2.30;2.30;;;;;;;;;;4993446;28;20612;-65
2023/05/08 00:58:06;;;;;;;2.53;2.43;;;;;;;;;;4993392;28;20418;-65
2023/05/08 01:00:33;;;;;;;7.07;2.87;;;;;;;;;;4993205;28;20472;-64
2023/05/08 01:03:00;;;;;;;3.13;3.03;;;;;;;;;;4992081;28;20431;-64
2023/05/08 01:05:29;;;;;;;5.40;2.90;;;;;;;;;;4991794;28;20433;-64
2023/05/08 01:07:55;;;;;;;2.60;2.60;;;;;;;;;;4992941;28;20783;-64
2023/05/08 01:10:21;;;;;;;6.83;2.60;;;;;;;;;;4993164;28;20497;-64
2023/05/08 01:13:06;;;;;;;2.57;2.57;;;;;;;;;;4993243;28;20516;-64
2023/05/08 01:15:43;;;;;;;2.70;2.60;;;;;;;;;;4993126;28;20502;-64
2023/05/08 01:18:26;;;;;;;3.20;2.90;;;;;;;;;;4993023;28;20954;-64
2023/05/08 01:21:11;;;;;;;2.80;2.80;;;;;;;;;;4993195;28;20433;-64
2023/05/08 01:23:52;;;;;;;3.30;3.20;;;;;;;;;;4993229;28;20426;-64
2023/05/08 01:26:37;;;;;;;2.97;2.87;;;;;;;;;;4992903;28;20443;-64
2023/05/08 01:29:21;;;;;;;3.50;3.30;;;;;;;;;;4992417;28;20452;-64
2023/05/08 01:32:05;;;;;;;3.00;3.00;;;;;;;;;;4992728;28;20413;-64
2023/05/08 01:34:33;;;;;;;6.30;3.53;;;;;;;;;;4992734;28;20460;-64
2023/05/08 01:37:10;;;;;;;2.90;2.80;;;;;;;;;;4992718;28;20427;-64
2023/05/08 01:39:59;;;;;;;3.23;3.13;;;;;;;;;;4991531;28;20479;-64
2023/05/08 01:42:28;;;;;;;2.97;2.87;;;;;;;;;;4991362;28;20908;-64
2023/05/08 01:44:57;;;;;;;3.57;3.27;;;;;;;;;;4992574;28;20456;-65
2023/05/08 01:47:25;;;;;;;3.10;3.10;;;;;;;;;;4992315;28;20496;-65
2023/05/08 01:49:55;;;;;;;3.23;3.00;;;;;;;;;;4992710;28;20440;-64
2023/05/08 01:52:27;;;;;;;3.23;3.00;;;;;;;;;;4992245;28;20536;-64
2023/05/08 01:55:13;;;;;;;2.97;2.97;;;;;;;;;;4992208;28;20435;-65
2023/05/08 01:57:41;;;;;;;3.40;3.20;;;;;;;;;;4992898;28;20425;-65
2023/05/08 02:00:08;;;;;;;2.77;2.77;;;;;;;;;;4992725;28;20522;-64
2023/05/08 02:02:34;;;;;;;3.57;3.33;;;;;;;;;;4992218;28;20452;-65
2023/05/08 02:05:02;;;;;;;4.23;3.93;;;;;;;;;;4991392;28;20433;-64
2023/05/08 02:07:32;;;;;;;3.97;3.67;;;;;;;;;;4991447;28;20433;-64
2023/05/08 02:09:58;;;;;;;3.00;3.00;;;;;;;;;;4991535;28;20520;-64
2023/05/08 02:12:25;;;;;;;3.60;3.50;;;;;;;;;;4991593;28;20432;-64
2023/05/08 02:14:52;;;;;;;3.07;2.90;;;;;;;;;;4992396;28;20416;-64
2023/05/08 02:17:19;;;;;;;3.23;3.03;;;;;;;;;;4992220;28;20436;-64
2023/05/08 02:19:45;;;;;;;3.97;3.87;;;;;;;;;;4991226;28;20615;-64
2023/05/08 02:22:13;;;;;;;3.40;3.30;;;;;;;;;;4992478;28;20421;-64
2023/05/08 02:24:39;;;;;;;4.07;3.87;;;;;;;;;;4992383;28;20443;-64
2023/05/08 02:27:06;;;;;;;3.73;3.63;;;;;;;;;;4992407;28;20499;-64
2023/05/08 02:29:34;;;;;;;3.90;3.80;;;;;;;;;;4992373;28;20425;-64
2023/05/08 02:32:01;;;;;;;3.07;3.07;;;;;;;;;;4992387;28;20834;-64
2023/05/08 02:34:30;;;;;;;3.43;3.33;;;;;;;;;;4991731;28;20490;-64
2023/05/08 02:36:57;;;;;;;9.17;3.97;;;;;;;;;;4996068;28;20504;-64
2023/05/08 02:39:25;;;;;;;3.40;3.30;;;;;;;;;;4995957;28;20460;-64
2023/05/08 02:41:51;;;;;;;3.57;3.47;;;;;;;;;;4995876;28;20869;-64
2023/05/08 02:44:17;;;;;;;3.87;3.67;;;;;;;;;;4996103;28;20413;-64
2023/05/08 02:46:47;;;;;;;4.93;3.37;;;;;;;;;;4996046;28;20417;-64
2023/05/08 02:49:16;;;;;;;3.97;3.40;;;;;;;;;;4994947;28;20481;-64
2023/05/08 02:52:02;;;;;;;3.80;3.50;;;;;;;;;;4995839;28;20424;-64
2023/05/08 02:54:48;;;;;;;3.13;2.93;;;;;;;;;;4975186;28;20425;-64
2023/05/08 02:57:33;;;;;;;3.57;3.57;;;;;;;;;;4975185;28;20448;-64
2023/05/08 03:00:02;;;;;;;3.50;3.40;;;;;;;;;;4995729;28;20488;-64
2023/05/08 03:02:32;;;;;;;3.80;3.60;;;;;;;;;;4995534;28;20412;-64
2023/05/08 03:05:24;;;;;;;4.40;3.83;;;;;;;;;;4995426;28;20831;-64
2023/05/08 03:07:52;;;;;;;4.17;3.97;;;;;;;;;;4993499;28;20433;-64
2023/05/08 03:10:19;;;;;;;3.80;3.60;;;;;;;;;;4995572;28;20448;-64
2023/05/08 03:12:47;;;;;;;4.10;4.00;;;;;;;;;;4995650;28;20428;-64
2023/05/08 03:15:23;;;;;;;4.13;3.93;;;;;;;;;;4995373;28;20460;-64
2023/05/08 03:17:54;;;;;;;3.83;3.73;;;;;;;;;;4994180;28;20425;-64
2023/05/08 03:20:20;;;;;;;3.73;3.50;;;;;;;;;;4995015;28;20538;-64
2023/05/08 03:22:47;;;;;;;5.53;3.80;;;;;;;;;;4994979;28;20429;-64
2023/05/08 03:25:16;;;;;;;4.07;3.87;;;;;;;;;;4994971;28;20924;-64
2023/05/08 03:27:43;;;;;;;3.87;3.57;;;;;;;;;;4995052;28;20421;-64
2023/05/08 03:30:10;;;;;;;3.67;3.67;;;;;;;;;;4995037;28;20416;-64
2023/05/08 03:32:39;;;;;;;4.40;4.20;;;;;;;;;;4995018;28;20449;-64
2023/05/08 03:35:06;;;;;;;3.63;3.63;;;;;;;;;;4994884;28;20822;-64
2023/05/08 03:37:32;;;;;;;3.93;3.70;;;;;;;;;;4993506;28;20467;-64
2023/05/08 03:40:01;;;;;;;4.27;4.07;;;;;;;;;;4994898;28;20499;-64
2023/05/08 03:42:27;;;;;;;5.60;3.80;;;;;;;;;;4994864;28;20507;-64
2023/05/08 03:44:56;;;;;;;3.87;3.77;;;;;;;;;;4994845;28;20448;-64
2023/05/08 03:47:26;;;;;;;3.70;3.50;;;;;;;;;;4994628;28;20417;-64
2023/05/08 03:49:52;;;;;;;4.00;3.90;;;;;;;;;;4994826;28;20777;-64
2023/05/08 03:52:18;;;;;;;4.33;4.13;;;;;;;;;;4994609;28;20813;-64
2023/05/08 03:54:44;;;;;;;3.40;3.33;;;;;;;;;;4993946;28;20479;-64
2023/05/08 03:57:11;;;;;;;4.73;4.60;;;;;;;;;;4994462;28;20428;-64
2023/05/08 03:59:42;;;;;;;7.40;4.10;;;;;;;;;;4994208;28;20511;-64
2023/05/08 04:02:14;;;;;;;4.17;3.90;;;;;;;;;;4994535;28;20433;-64
2023/05/08 04:04:40;;;;;;;4.47;4.27;;;;;;;;;;4994469;28;20474;-64
2023/05/08 04:07:19;;;;;;;5.10;4.90;;;;;;;;;;4994627;28;20485;-64
2023/05/08 04:10:03;;;;;;;4.13;4.03;;;;;;;;;;4993132;28;20436;-64
2023/05/08 04:12:29;;;;;;;5.73;3.63;;;;;;;;;;4993615;28;20502;-64
2023/05/08 04:14:58;;;;;;;3.90;3.80;;;;;;;;;;4993134;28;20503;-64
2023/05/08 04:17:45;;;;;;;4.20;4.10;;;;;;;;;;4991525;28;20424;-64
2023/05/08 04:20:15;;;;;;;4.50;4.20;;;;;;;;;;4993525;28;20476;-65
2023/05/08 04:22:42;;;;;;;6.90;6.60;;;;;;;;;;4993584;28;20444;-65
2023/05/08 04:25:08;;;;;;;20.87;18.77;;;;;;;;;;4994001;28;20548;-65
2023/05/08 04:27:35;;;;;;;8.40;8.00;;;;;;;;;;4993595;28;20436;-65
2023/05/08 04:30:01;;;;;;;4.90;4.70;;;;;;;;;;4993746;28;20864;-65
2023/05/08 04:32:28;;;;;;;5.20;5.00;;;;;;;;;;4992442;28;20435;-64
2023/05/08 04:34:55;;;;;;;5.10;4.90;;;;;;;;;;4993744;28;20421;-64
2023/05/08 04:37:23;;;;;;;4.77;4.10;;;;;;;;;;4993647;28;20432;-64
2023/05/08 04:39:52;;;;;;;4.30;4.23;;;;;;;;;;4993744;28;20968;-64
2023/05/08 04:42:18;;;;;;;9.30;4.50;;;;;;;;;;4992484;28;20418;-64
2023/05/08 04:44:44;;;;;;;4.63;4.40;;;;;;;;;;4993763;28;20809;-64
2023/05/08 04:47:10;;;;;;;5.37;5.10;;;;;;;;;;4993542;28;20916;-64
2023/05/08 04:49:36;;;;;;;5.63;5.20;;;;;;;;;;4993540;28;20434;-64
2023/05/08 04:52:02;;;;;;;5.17;4.97;;;;;;;;;;4993678;28;20778;-64
2023/05/08 04:54:29;;;;;;;4.30;4.20;;;;;;;;;;4992332;28;20848;-64
2023/05/08 04:56:55;;;;;;;5.10;4.80;;;;;;;;;;4993145;28;20428;-64
2023/05/08 04:59:21;;;;;;;8.47;7.70;;;;;;;;;;4993422;28;20480;-64
2023/05/08 05:01:47;;;;;;;5.20;5.00;;;;;;;;;;4993695;28;20527;-64
2023/05/08 05:04:13;;;;;;;5.40;4.90;;;;;;;;;;4993439;28;20429;-65
2023/05/08 05:06:39;;;;;;;5.37;5.17;;;;;;;;;;4993151;28;20529;-65
2023/05/08 05:09:05;;;;;;;5.83;5.40;;;;;;;;;;4992735;28;20420;-65
2023/05/08 05:11:31;;;;;;;4.97;4.57;;;;;;;;;;4992028;28;20811;-64
2023/05/08 05:13:59;;;;;;;4.70;4.40;;;;;;;;;;4992720;28;20410;-64
2023/05/08 05:16:26;;;;;;;6.13;5.90;;;;;;;;;;4992397;28;20416;-64
2023/05/08 05:18:54;;;;;;;4.80;4.60;;;;;;;;;;4991361;28;20470;-64
2023/05/08 05:21:20;;;;;;;4.30;4.23;;;;;;;;;;4993207;28;20404;-64
2023/05/08 05:23:46;;;;;;;6.33;6.00;;;;;;;;;;4993093;28;20412;-65
2023/05/08 05:26:12;;;;;;;5.63;5.40;;;;;;;;;;4992929;28;20447;-65
2023/05/08 05:28:38;;;;;;;5.67;5.30;;;;;;;;;;4993105;28;20472;-65
2023/05/08 05:31:04;;;;;;;5.60;5.17;;;;;;;;;;4993002;28;20409;-65
2023/05/08 05:33:30;;;;;;;6.17;5.77;;;;;;;;;;4992547;28;20413;-65
2023/05/08 05:35:56;;;;;;;5.40;5.20;;;;;;;;;;4991536;28;20426;-65
2023/05/08 05:38:24;;;;;;;4.70;4.60;;;;;;;;;;4992758;28;20948;-65
2023/05/08 05:40:51;;;;;;;4.80;4.60;;;;;;;;;;4992720;28;20441;-65
2023/05/08 05:43:17;;;;;;;5.10;4.90;;;;;;;;;;4992140;28;20551;-64
2023/05/08 05:45:43;;;;;;;4.70;4.60;;;;;;;;;;4991875;28;20564;-64
2023/05/08 05:48:09;;;;;;;7.00;6.70;;;;;;;;;;4992373;28;20421;-65
2023/05/08 05:50:36;;;;;;;5.10;4.87;;;;;;;;;;4992987;28;20436;-65
2023/05/08 05:53:02;;;;;;;4.63;4.53;;;;;;;;;;4992671;28;20921;-64
2023/05/08 05:55:28;;;;;;;4.77;4.67;;;;;;;;;;4991354;28;20782;-65
2023/05/08 05:57:54;;;;;;;5.67;5.27;;;;;;;;;;4992692;28;20405;-65
2023/05/08 06:00:24;;;;;;;4.90;4.70;;;;;;;;;;4992015;28;20885;-65
2023/05/08 06:02:53;;;;;;;5.17;4.63;;;;;;;;;;4992370;28;20531;-65
2023/05/08 06:05:19;;;;;;;6.53;4.80;;;;;;;;;;4992311;28;20475;-65
2023/05/08 06:07:45;;;;;;;5.40;5.00;;;;;;;;;;4992525;28;20448;-64
2023/05/08 06:10:12;;;;;;;5.63;5.23;;;;;;;;;;4994543;28;20462;-62
2023/05/08 06:12:40;;;;;;;5.20;4.90;;;;;;;;;;4996521;28;20460;-62
2023/05/08 06:15:08;;;;;;;5.93;5.63;;;;;;;;;;4996490;28;20908;-63
2023/05/08 06:17:34;;;;;;;5.93;5.60;;;;;;;;;;4996459;28;20436;-63
2023/05/08 06:20:02;;;;;;;4.40;4.37;;;;;;;;;;4995590;28;20461;-63
2023/05/08 06:22:29;;;;;;;4.60;4.40;;;;;;;;;;4996213;28;20423;-63
2023/05/08 06:24:56;;;;;;;4.93;4.63;;;;;;;;;;4996241;28;20442;-63
2023/05/08 06:27:22;;;;;;;26.07;7.20;;;;;;;;;;4996604;28;20522;-63
2023/05/08 06:29:50;;;;;;;18.67;6.27;;;;;;;;;;4996096;28;20990;-62
2023/05/08 06:32:17;;;;;;;12.03;6.03;;;;;;;;;;4995908;28;20420;-63
2023/05/08 06:34:43;;;;;;;10.77;5.97;;;;;;;;;;4995911;28;20441;-63
2023/05/08 06:37:09;;;;;;;5.50;5.10;;;;;;;;;;4996001;28;20769;-63
2023/05/08 06:39:35;;;;;;;5.40;5.07;;;;;;;;;;4996002;28;20497;-63
2023/05/08 06:42:01;;;;;;;4.40;4.30;;;;;;;;;;4996133;28;20999;-63
2023/05/08 06:44:27;;;;;;;5.20;4.77;;;;;;;;;;4996091;28;20406;-63
2023/05/08 06:46:54;;;;;;;5.60;5.20;;;;;;;;;;4995925;28;20800;-63
2023/05/08 06:49:22;;;;;;;5.97;5.67;;;;;;;;;;4995861;28;20810;-63
2023/05/08 06:51:48;;;;;;;5.20;5.00;;;;;;;;;;4995916;28;20441;-63
2023/05/08 06:54:14;;;;;;;5.73;5.43;;;;;;;;;;4995812;28;20408;-63
2023/05/08 06:56:40;;;;;;;5.27;5.13;;;;;;;;;;4995875;28;20416;-63
2023/05/08 06:59:06;;;;;;;5.47;5.17;;;;;;;;;;4995702;28;20559;-63
2023/05/08 07:01:32;;;;;;;5.57;5.37;;;;;;;;;;4995813;28;20419;-62
2023/05/08 07:03:59;;;;;;;5.70;5.40;;;;;;;;;;4996100;28;20459;-63
2023/05/08 07:06:26;;;;;;;15.10;6.77;;;;;;;;;;4995950;28;20429;-62
2023/05/08 07:08:55;;;;;;;7.57;5.60;;;;;;;;;;4995888;28;20485;-62
2023/05/08 07:11:20;;;;;;;6.77;6.23;;;;;;;;;;4996012;28;20438;-62
2023/05/08 07:13:49;;;;;;;7.27;6.60;;;;;;;;;;4995895;28;20893;-62
2023/05/08 07:16:18;;;;;;;7.47;6.80;;;;;;;;;;4996225;28;20504;-62
2023/05/08 07:18:44;;;;;;;6.67;6.27;;;;;;;;;;4995692;28;20536;-61
2023/05/08 07:21:10;;;;;;;5.90;5.70;;;;;;;;;;4995653;28;20780;-61
2023/05/08 07:23:36;;;;;;;6.90;6.33;;;;;;;;;;4994424;28;20437;-61
2023/05/08 07:26:02;;;;;;;6.20;5.80;;;;;;;;;;4995810;28;20422;-61
2023/05/08 07:28:31;;;;;;;5.17;5.07;;;;;;;;;;4995397;28;20785;-61
2023/05/08 07:30:57;;;;;;;5.37;5.27;;;;;;;;;;4995574;28;20426;-62
2023/05/08 07:33:23;;;;;;;5.70;5.30;;;;;;;;;;4995520;28;20442;-63
2023/05/08 07:35:49;;;;;;;6.50;6.30;;;;;;;;;;4995550;28;20910;-61
2023/05/08 07:38:15;;;;;;;5.87;5.67;;;;;;;;;;4995304;28;20450;-61
2023/05/08 07:40:41;;;;;;;6.03;5.70;;;;;;;;;;4995385;28;20469;-61
2023/05/08 07:43:07;;;;;;;5.80;5.60;;;;;;;;;;4995330;28;20945;-63
2023/05/08 07:45:33;;;;;;;5.40;5.30;;;;;;;;;;4995298;28;20506;-61
2023/05/08 07:47:59;;;;;;;6.43;6.17;;;;;;;;;;4994233;28;20421;-61
2023/05/08 07:50:26;;;;;;;6.13;5.73;;;;;;;;;;4995287;28;20454;-61
2023/05/08 07:52:52;;;;;;;5.80;5.40;;;;;;;;;;4995025;28;20450;-61
2023/05/08 07:55:18;;;;;;;5.80;4.77;;;;;;;;;;4995090;28;20501;-62
2023/05/08 07:57:45;;;;;;;5.03;4.93;;;;;;;;;;4995335;28;20510;-62
2023/05/08 08:00:12;;;;;;;5.00;4.70;;;;;;;;;;4995001;28;21033;-62
2023/05/08 08:02:38;;;;;;;5.83;5.40;;;;;;;;;;4994837;28;20455;-62
2023/05/08 08:05:09;;;;;;;4.70;4.60;;;;;;;;;;4994854;28;20441;-62
2023/05/08 08:07:40;;;;;;;4.73;4.50;;;;;;;;;;4994956;28;20423;-61
2023/05/08 08:10:08;;;;;;;4.60;4.50;;;;;;;;;;4994850;28;20784;-62
2023/05/08 08:12:34;;;;;;;4.43;4.33;;;;;;;;;;4994760;28;20416;-61
2023/05/08 08:15:00;;;;;;;3.60;3.60;;;;;;;;;;4994833;28;20427;-62
2023/05/08 08:17:28;;;;;;;4.00;3.90;;;;;;;;;;4994615;28;20432;-62
2023/05/08 08:19:55;;;;;;;4.47;4.27;;;;;;;;;;4994461;28;20949;-62
2023/05/08 08:22:21;;;;;;;3.90;3.80;;;;;;;;;;4994419;28;20412;-62
2023/05/08 08:24:47;;;;;;;4.23;4.00;;;;;;;;;;4994538;28;20443;-62
2023/05/08 08:27:13;;;;;;;4.27;3.90;;;;;;;;;;4994343;28;20409;-62
2023/05/08 08:29:39;;;;;;;6.53;4.10;;;;;;;;;;4994459;28;20456;-62
2023/05/08 08:32:05;;;;;;;4.13;4.03;;;;;;;;;;4993661;28;20512;-61
2023/05/08 08:34:34;;;;;;;4.10;4.00;;;;;;;;;;4994577;28;20432;-62
2023/05/08 08:37:07;;;;;;;4.67;4.40;;;;;;;;;;4994201;28;20424;-62
2023/05/08 08:39:33;;;;;;;8.67;4.10;;;;;;;;;;4994587;28;20500;-61
2023/05/08 08:41:59;;;;;;;4.23;4.03;;;;;;;;;;4994321;28;20455;-62
2023/05/08 08:44:25;;;;;;;4.30;4.10;;;;;;;;;;4992970;28;20492;-62
2023/05/08 08:46:52;;;;;;;3.70;3.60;;;;;;;;;;4994290;28;20754;-62
2023/05/08 08:49:19;;;;;;;3.20;3.10;;;;;;;;;;4994139;28;20423;-62
2023/05/08 08:51:56;;;;;;;3.80;3.63;;;;;;;;;;4994048;28;20423;-62
2023/05/08 08:54:23;;;;;;;3.77;3.67;;;;;;;;;;4994396;28;20783;-62
2023/05/08 08:56:50;;;;;;;6.20;3.90;;;;;;;;;;4993936;28;20416;-62
2023/05/08 08:59:20;;;;;;;3.93;3.80;;;;;;;;;;4993833;28;20476;-62
2023/05/08 09:01:47;;;;;;;4.77;4.40;;;;;;;;;;4992574;28;20423;-62
2023/05/08 09:04:13;;;;;;;4.03;3.83;;;;;;;;;;4993816;28;20432;-62
2023/05/08 09:06:44;;;;;;;3.93;3.73;;;;;;;;;;4993943;28;20493;-62
2023/05/08 09:09:11;;;;;;;3.67;3.37;;;;;;;;;;4994032;28;20465;-62
2023/05/08 09:11:38;;;;;;;3.50;3.40;;;;;;;;;;4994023;28;20501;-62
2023/05/08 09:14:04;;;;;;;3.63;3.40;;;;;;;;;;4993621;28;20504;-62
2023/05/08 09:16:30;;;;;;;3.83;3.50;;;;;;;;;;4993786;28;20429;-62
2023/05/08 09:18:58;;;;;;;3.40;3.10;;;;;;;;;;4993354;28;20471;-62
2023/05/08 09:21:24;;;;;;;3.47;3.37;;;;;;;;;;4993730;28;20392;-62
2023/05/08 09:24:08;;;;;;;3.40;3.30;;;;;;;;;;4993481;28;20522;-62
2023/05/08 09:26:34;;;;;;;3.13;3.03;;;;;;;;;;4993543;28;20421;-62
2023/05/08 09:29:14;;;;;;;3.67;3.57;;;;;;;;;;4993393;28;20500;-63
2023/05/08 09:31:40;;;;;;;3.07;2.83;;;;;;;;;;4993553;28;20430;-63
2023/05/08 09:34:10;;;;;;;3.13;2.83;;;;;;;;;;4993336;28;20446;-63
2023/05/08 09:36:41;;;;;;;3.53;3.33;;;;;;;;;;4993410;28;20411;-63
2023/05/08 09:39:11;;;;;;;3.43;3.33;;;;;;;;;;4993655;28;20568;-62
2023/05/08 09:41:40;;;;;;;3.37;3.10;;;;;;;;;;4993519;28;20428;-63
2023/05/08 09:44:06;;;;;;;3.57;3.37;;;;;;;;;;4993361;28;20444;-62
2023/05/08 09:46:33;;;;;;;3.17;3.17;;;;;;;;;;4993673;28;20470;-63
2023/05/08 09:49:02;;;;;;;4.07;3.97;;;;;;;;;;4993572;28;20440;-62
2023/05/08 09:51:31;;;;;;;3.70;3.60;;;;;;;;;;4993140;28;20811;-62
2023/05/08 09:54:05;;;;;;;3.37;3.20;;;;;;;;;;4993719;28;20429;-64
2023/05/08 09:56:34;;;;;;;3.37;3.27;;;;;;;;;;4993446;28;20944;-63
2023/05/08 09:59:01;;;;;;;3.47;3.37;;;;;;;;;;4992926;28;20464;-63
2023/05/08 10:01:30;;;;;;;4.07;3.67;;;;;;;;;;4993148;28;20477;-63
2023/05/08 10:03:56;;;;;;;3.43;3.30;;;;;;;;;;4993501;28;20445;-63
2023/05/08 10:06:22;;;;;;;3.90;3.57;;;;;;;;;;4993430;28;20395;-63
2023/05/08 10:08:48;;;;;;;3.90;3.80;;;;;;;;;;4993029;28;20790;-63
2023/05/08 10:11:18;;;;;;;3.27;3.27;;;;;;;;;;4992381;28;20435;-63
2023/05/08 10:13:45;;;;;;;3.87;3.63;;;;;;;;;;4993369;28;20417;-63
2023/05/08 10:16:15;;;;;;;3.17;3.07;;;;;;;;;;4993153;28;20441;-63
2023/05/08 10:18:47;;;;;;;3.47;3.23;;;;;;;;;;4993914;28;20415;-62
2023/05/08 10:21:16;;;;;;;3.50;3.40;;;;;;;;;;4991755;28;20422;-63
2023/05/08 10:23:42;;;;;;;3.30;3.20;;;;;;;;;;4992881;28;20427;-63
2023/05/08 10:26:30;;;;;;;3.30;3.10;;;;;;;;;;4992843;28;20407;-61
2023/05/08 10:29:04;;;;;;;3.77;3.57;;;;;;;;;;4992829;28;20534;-63
2023/05/08 10:31:34;;;;;;;3.10;3.00;;;;;;;;;;4992909;28;20414;-63
2023/05/08 10:34:03;;;;;;;3.90;3.00;;;;;;;;;;4992917;28;20899;-63
2023/05/08 10:36:32;;;;;;;2.77;2.67;;;;;;;;;;4992890;28;20428;-61
2023/05/08 10:38:58;;;;;;;6.83;3.20;;;;;;;;;;4992825;28;20885;-63
2023/05/08 10:41:25;;;;;;;3.03;2.90;;;;;;;;;;4992582;28;20835;-63
2023/05/08 10:43:51;;;;;;;3.60;3.30;;;;;;;;;;4993059;28;20449;-63
2023/05/08 10:46:29;;;;;;;4.00;3.73;;;;;;;;;;4992695;28;20779;-61
2023/05/08 10:49:09;;;;;;;3.00;2.87;;;;;;;;;;4992991;28;20846;-61
2023/05/08 10:51:41;;;;;;;3.20;2.70;;;;;;;;;;4992445;28;20795;-61
2023/05/08 10:54:24;;;;;;;5.70;2.30;;;;;;;;;;4992657;28;20839;-60
2023/05/08 10:56:50;;;;;;;2.40;2.20;;;;;;;;;;4995429;28;20405;-62
2023/05/08 10:59:22;;;;;;;2.40;2.30;;;;;;;;;;4995978;28;20495;-63
2023/05/08 11:01:49;;;;;;;2.33;2.13;;;;;;;;;;4996145;28;20428;-63
2023/05/08 11:04:22;;;;;;;2.50;2.40;;;;;;;;;;4996031;28;20924;-63
2023/05/08 11:06:51;;;;;;;2.57;2.47;;;;;;;;;;4996089;28;20426;-63
2023/05/08 11:09:30;;;;;;;2.50;2.10;;;;;;;;;;4996675;28;20907;-63
2023/05/08 11:12:19;;;;;;;2.20;2.13;;;;;;;;;;4996162;28;20955;-62
2023/05/08 11:14:53;;;;;;;4.60;4.20;;;;;;;;;;4996027;28;20944;-62
2023/05/08 11:17:25;;;;;;;9.20;8.40;;;;;;;;;;4995889;28;20516;-62
2023/05/08 11:19:58;;;;;;;2.57;2.57;;;;;;;;;;4995826;28;20559;-62
2023/05/08 11:22:28;;;;;;;1.60;1.60;;;;;;;;;;4995540;28;20403;-62
2023/05/08 11:24:54;;;;;;;2.67;2.50;;;;;;;;;;4995823;28;20474;-62
2023/05/08 11:27:32;;;;;;;3.60;3.30;;;;;;;;;;4995909;28;20436;-62
2023/05/08 11:30:17;;;;;;;10.70;7.30;;;;;;;;;;4994607;28;20452;-62
2023/05/08 11:32:57;;;;;;;3.70;3.50;;;;;;;;;;4995861;28;20453;-62
2023/05/08 11:35:41;;;;;;;9.07;8.27;;;;;;;;;;4995630;28;20442;-62
2023/05/08 11:38:14;;;;;;;42.83;31.63;;;;;;;;;;4995800;28;20416;-64
2023/05/08 11:40:46;;;;;;;2.60;2.60;;;;;;;;;;4995682;28;20485;-64
2023/05/08 11:43:27;;;;;;;2.37;1.90;;;;;;;;;;4995845;28;20426;-62
2023/05/08 11:45:53;;;;;;;1.83;1.83;;;;;;;;;;4995569;28;20439;-62
2023/05/08 11:48:19;;;;;;;1.70;1.60;;;;;;;;;;4995371;28;20443;-61
2023/05/08 11:50:46;;;;;;;1.90;1.90;;;;;;;;;;4995066;28;20480;-62
2023/05/08 11:53:12;;;;;;;2.27;1.83;;;;;;;;;;4993806;28;20492;-62
2023/05/08 11:55:38;;;;;;;2.07;2.07;;;;;;;;;;4995013;28;20438;-61
2023/05/08 11:58:16;;;;;;;1.73;1.73;;;;;;;;;;4995186;28;20447;-64
2023/05/08 12:00:47;;;;;;;1.90;1.83;;;;;;;;;;4994851;28;20570;-64
2023/05/08 12:03:17;;;;;;;1.70;1.60;;;;;;;;;;4994947;28;20426;-62
2023/05/08 12:05:44;;;;;;;2.20;2.00;;;;;;;;;;4995009;28;20459;-62
2023/05/08 12:08:13;;;;;;;1.80;1.70;;;;;;;;;;4993943;28;20420;-62
2023/05/08 12:10:48;;;;;;;1.60;1.60;;;;;;;;;;4994822;28;20445;-62
2023/05/08 12:13:24;;;;;;;2.53;1.70;;;;;;;;;;4994821;28;20402;-62
2023/05/08 12:15:52;;;;;;;5.10;1.60;;;;;;;;;;4994154;28;20478;-63
2023/05/08 12:18:18;;;;;;;1.40;1.40;;;;;;;;;;4994725;28;21037;-63
2023/05/08 12:20:47;;;;;;;2.77;1.80;;;;;;;;;;4994252;28;20996;-63
2023/05/08 12:23:13;;;;;;;1.50;1.50;;;;;;;;;;4994571;28;20416;-62
2023/05/08 12:25:39;;;;;;;1.40;1.30;;;;;;;;;;4993921;28;20415;-63
2023/05/08 12:28:06;;;;;;;1.50;1.50;;;;;;;;;;4994377;28;20427;-63
2023/05/08 12:30:32;;;;;;;1.87;1.77;;;;;;;;;;4994220;28;20499;-62
2023/05/08 12:32:59;;;;;;;1.70;1.60;;;;;;;;;;4994712;28;20424;-62
2023/05/08 12:35:25;;;;;;;1.77;1.70;;;;;;;;;;4993963;28;20432;-63
2023/05/08 12:37:51;;;;;;;1.47;1.47;;;;;;;;;;4994145;28;20427;-63
2023/05/08 12:40:30;;;;;;;1.40;1.30;;;;;;;;;;4994053;28;20490;-63
2023/05/08 12:42:57;;;;;;;1.47;1.47;;;;;;;;;;4993923;28;20427;-66
2023/05/08 12:45:27;;;;;;;1.30;1.30;;;;;;;;;;4993907;28;20451;-63
2023/05/08 12:47:55;;;;;;;1.70;1.70;;;;;;;;;;4993994;28;20403;-63
2023/05/08 12:50:21;;;;;;;1.83;1.73;;;;;;;;;;4994131;28;20467;-65
2023/05/08 12:52:47;;;;;;;1.40;1.30;;;;;;;;;;4993786;28;20523;-63
2023/05/08 12:55:22;;;;;;;1.50;1.50;;;;;;;;;;4993589;28;20800;-63
2023/05/08 12:57:50;;;;;;;1.50;1.50;;;;;;;;;;4993833;28;20412;-63
2023/05/08 13:00:17;;;;;;;1.30;1.30;;;;;;;;;;4993797;28;20461;-62
2023/05/08 13:02:55;;;;;;;1.47;1.47;;;;;;;;;;4993708;28;20738;-62
2023/05/08 13:05:22;;;;;;;1.67;1.57;;;;;;;;;;4993529;28;20436;-62
2023/05/08 13:07:49;;;;;;;1.40;1.40;;;;;;;;;;4992284;28;20442;-62
2023/05/08 13:10:17;;;;;;;1.53;1.47;;;;;;;;;;4993664;28;20445;-62
2023/05/08 13:12:46;;;;;;;2.33;1.47;;;;;;;;;;4993581;28;20503;-64
2023/05/08 13:15:12;;;;;;;1.50;1.50;;;;;;;;;;4993486;28;20540;-62
2023/05/08 13:17:38;;;;;;;4.73;1.60;;;;;;;;;;4993874;28;20456;-64
2023/05/08 13:20:05;;;;;;;1.50;1.50;;;;;;;;;;4992660;28;20566;-62
2023/05/08 13:22:31;;;;;;;2.67;1.77;;;;;;;;;;4993512;28;20400;-63
2023/05/08 13:24:57;;;;;;;1.57;1.50;;;;;;;;;;4993257;28;20803;-63
2023/05/08 13:27:23;;;;;;;1.67;1.60;;;;;;;;;;4993217;28;20535;-63
2023/05/08 13:29:49;;;;;;;1.70;1.60;;;;;;;;;;4992577;28;20426;-63
2023/05/08 13:32:17;;;;;;;1.70;1.60;;;;;;;;;;4993468;28;20423;-63
2023/05/08 13:34:43;;;;;;;5.20;1.90;;;;;;;;;;4993511;28;20932;-64
2023/05/08 13:37:09;;;;;;;1.87;1.77;;;;;;;;;;4992825;28;20447;-64
2023/05/08 13:39:36;;;;;;;1.43;1.43;;;;;;;;;;4993194;28;20464;-64
2023/05/08 13:42:03;;;;;;;1.73;1.63;;;;;;;;;;4992005;28;20803;-64
2023/05/08 13:44:29;;;;;;;1.50;1.50;;;;;;;;;;4992130;28;20444;-64
2023/05/08 13:46:55;;;;;;;1.90;1.80;;;;;;;;;;4992730;28;20938;-62
2023/05/08 13:49:23;;;;;;;1.80;1.80;;;;;;;;;;4993158;28;20457;-62
2023/05/08 13:51:49;;;;;;;1.27;1.27;;;;;;;;;;4993071;28;20430;-62
2023/05/08 13:54:18;;;;;;;1.80;1.80;;;;;;;;;;4992905;28;20441;-64
2023/05/08 13:56:44;;;;;;;2.27;1.90;;;;;;;;;;4992957;28;20854;-63
2023/05/08 13:59:12;;;;;;;1.83;1.77;;;;;;;;;;4992808;28;20473;-63
2023/05/08 14:01:38;;;;;;;3.23;3.13;;;;;;;;;;4993009;28;20486;-64
2023/05/08 14:04:07;;;;;;;3.27;2.97;;;;;;;;;;4992842;28;20944;-64
2023/05/08 14:06:32;;;;;;;3.20;3.10;;;;;;;;;;4993016;28;20451;-64
2023/05/08 14:08:58;;;;;;;2.67;2.57;;;;;;;;;;4992945;28;20403;-64
2023/05/08 14:11:25;;;;;;;6.90;3.03;;;;;;;;;;4992827;28;20473;-66
2023/05/08 14:13:51;;;;;;;3.53;3.33;;;;;;;;;;4993134;28;20844;-65
2023/05/08 14:16:17;;;;;;;4.17;3.97;;;;;;;;;;4992761;28;21579;-65
2023/05/08 14:18:46;;;;;;;11.67;5.63;;;;;;;;;;4993087;28;20422;-64
2023/05/08 14:21:12;;;;;;;8.93;8.10;;;;;;;;;;4992895;28;20422;-64
2023/05/08 14:23:38;;;;;;;3.70;3.50;;;;;;;;;;4992895;28;20401;-64
2023/05/08 14:26:04;;;;;;;4.30;4.20;;;;;;;;;;4992704;28;20418;-64
2023/05/08 14:28:30;;;;;;;5.07;4.77;;;;;;;;;;4992525;28;20403;-65
2023/05/08 14:30:58;;;;;;;4.00;3.70;;;;;;;;;;4994016;28;20844;-64
2023/05/08 14:33:27;;;;;;;4.00;3.80;;;;;;;;;;4994678;28;20485;-64
2023/05/08 14:35:53;;;;;;;3.43;3.33;;;;;;;;;;4996408;28;20490;-64
2023/05/08 14:38:21;;;;;;;3.67;3.33;;;;;;;;;;4996314;28;20940;-65
2023/05/08 14:40:50;;;;;;;7.63;4.53;;;;;;;;;;4996420;28;20552;-65
2023/05/08 14:43:16;;;;;;;4.37;4.00;;;;;;;;;;4996076;28;20454;-65
2023/05/08 14:45:42;;;;;;;3.77;3.67;;;;;;;;;;4994772;28;20894;-65
2023/05/08 14:48:08;;;;;;;4.27;4.00;;;;;;;;;;4996196;28;20445;-65
2023/05/08 14:50:34;;;;;;;5.00;4.70;;;;;;;;;;4996350;28;20435;-65
2023/05/08 14:53:00;;;;;;;4.70;4.50;;;;;;;;;;4996032;28;20419;-65